createdAt,value
2019-03-15T00:01:31.769Z,17.09
2019-03-15T00:04:00.069Z,16.92
2019-03-15T00:06:28.349Z,17.35
2019-03-15T00:08:57.363Z,16.94
2019-03-15T00:11:25.778Z,17.56
2019-03-15T00:13:54.099Z,17.70
2019-03-15T00:16:22.368Z,17.51
2019-03-15T00:18:50.881Z,18.28
2019-03-15T00:21:19.168Z,17.47
2019-03-15T00:23:47.531Z,17.85
2019-03-15T00:26:15.806Z,18.53
2019-03-15T00:28:44.995Z,17.72
2019-03-15T00:31:13.249Z,17.35
2019-03-15T00:33:41.551Z,17.88
2019-03-15T00:36:09.806Z,18.08
2019-03-15T00:38:38.080Z,17.72
2019-03-15T00:41:06.348Z,17.57
2019-03-15T00:43:34.603Z,17.94
2019-03-15T00:46:02.880Z,16.81
2019-03-15T00:48:31.151Z,17.55
2019-03-15T00:50:59.431Z,17.11
2019-03-15T00:53:27.762Z,17.27
2019-03-15T00:55:56.039Z,17.65
2019-03-15T00:58:24.319Z,18.02
2019-03-15T01:00:52.598Z,16.38
2019-03-15T01:03:20.876Z,15.38
2019-03-15T01:05:49.151Z,15.90
2019-03-15T01:08:17.394Z,16.07
2019-03-15T01:10:45.672Z,16.12
2019-03-15T01:13:14.096Z,15.22
2019-03-15T01:15:42.401Z,15.62
2019-03-15T01:18:10.664Z,15.95
2019-03-15T01:20:38.922Z,16.39
2019-03-15T01:23:07.180Z,15.38
2019-03-15T01:25:35.525Z,14.82
2019-03-15T01:28:03.796Z,15.23
2019-03-15T01:30:32.161Z,14.91
2019-03-15T01:33:00.440Z,15.12
2019-03-15T01:35:28.736Z,15.03
2019-03-15T01:37:57.006Z,15.70
2019-03-15T01:40:25.268Z,16.28
2019-03-15T01:42:53.520Z,15.75
2019-03-15T01:45:21.797Z,15.10
2019-03-15T01:47:50.498Z,15.90
2019-03-15T01:50:18.941Z,15.83
2019-03-15T01:52:47.233Z,16.10
2019-03-15T01:55:15.491Z,15.24
2019-03-15T01:57:43.734Z,15.54
2019-03-15T02:00:12.087Z,15.70
2019-03-15T02:02:40.336Z,15.50
2019-03-15T02:05:08.657Z,16.75
2019-03-15T02:07:36.938Z,14.93
2019-03-15T02:10:07.842Z,15.96
2019-03-15T02:12:36.100Z,16.07
2019-03-15T02:15:07.180Z,16.24
2019-03-15T02:17:35.443Z,15.26
2019-03-15T02:20:04.948Z,16.34
2019-03-15T02:22:33.583Z,15.07
2019-03-15T02:25:02.046Z,15.47
2019-03-15T02:27:30.247Z,14.97
2019-03-15T02:29:58.581Z,15.37
2019-03-15T02:32:26.851Z,15.17
2019-03-15T02:34:55.177Z,15.41
2019-03-15T02:37:23.438Z,15.55
2019-03-15T02:39:51.701Z,15.70
2019-03-15T02:42:20.330Z,15.35
2019-03-15T02:44:48.611Z,15.42
2019-03-15T02:47:16.892Z,15.16
2019-03-15T02:49:45.147Z,14.97
2019-03-15T02:52:13.426Z,15.53
2019-03-15T02:54:41.676Z,15.23
2019-03-15T02:57:09.930Z,15.27
2019-03-15T02:59:38.194Z,15.46
2019-03-15T03:02:06.522Z,15.78
2019-03-15T03:04:34.771Z,15.10
2019-03-15T03:07:03.142Z,14.87
2019-03-15T03:09:31.395Z,15.24
2019-03-15T03:11:59.665Z,15.57
2019-03-15T03:14:27.925Z,16.10
2019-03-15T03:16:56.195Z,15.33
2019-03-15T03:19:24.461Z,15.71
2019-03-15T03:21:52.744Z,15.71
2019-03-15T03:24:21.001Z,16.28
2019-03-15T03:26:49.282Z,15.81
2019-03-15T03:29:17.558Z,15.97
2019-03-15T03:31:46.229Z,15.22
2019-03-15T03:34:14.758Z,15.74
2019-03-15T03:36:43.018Z,15.50
2019-03-15T03:39:11.279Z,16.19
2019-03-15T03:41:39.769Z,15.90
2019-03-15T03:44:08.043Z,16.02
2019-03-15T03:46:36.340Z,15.64
2019-03-15T03:49:04.659Z,15.34
2019-03-15T03:51:32.934Z,15.32
2019-03-15T03:54:01.191Z,15.17
2019-03-15T03:56:29.488Z,15.33
2019-03-15T03:58:57.759Z,15.66
2019-03-15T04:01:26.047Z,14.56
2019-03-15T04:03:54.364Z,15.23
2019-03-15T04:06:22.652Z,15.23
2019-03-15T04:08:50.961Z,14.72
2019-03-15T04:11:19.221Z,15.46
2019-03-15T04:13:47.493Z,15.19
2019-03-15T04:16:15.774Z,16.16
2019-03-15T04:18:44.023Z,15.37
2019-03-15T04:21:12.296Z,15.30
2019-03-15T04:23:40.559Z,14.99
2019-03-15T04:26:08.848Z,15.39
2019-03-15T04:28:37.102Z,15.21
2019-03-15T04:31:05.380Z,15.25
2019-03-15T04:33:33.631Z,15.39
2019-03-15T04:36:01.904Z,14.87
2019-03-15T04:38:30.162Z,15.50
2019-03-15T04:40:58.425Z,15.71
2019-03-15T04:43:26.697Z,15.29
2019-03-15T04:45:54.969Z,15.47
2019-03-15T04:48:23.315Z,15.49
2019-03-15T04:50:51.575Z,16.08
2019-03-15T04:53:19.848Z,15.78
2019-03-15T04:55:48.104Z,15.93
2019-03-15T04:58:16.374Z,15.15
2019-03-15T05:00:44.642Z,15.73
2019-03-15T05:03:12.984Z,15.38
2019-03-15T05:05:41.271Z,16.20
2019-03-15T05:08:09.531Z,16.55
2019-03-15T05:10:37.808Z,15.75
2019-03-15T05:13:06.067Z,15.77
2019-03-15T05:15:34.364Z,16.46
2019-03-15T05:18:02.626Z,16.21
2019-03-15T05:20:30.885Z,16.85
2019-03-15T05:22:59.147Z,15.90
2019-03-15T05:25:29.862Z,15.82
2019-03-15T05:27:57.391Z,15.74
2019-03-15T05:30:25.636Z,16.22
2019-03-15T05:32:53.925Z,15.95
2019-03-15T05:35:22.181Z,16.52
2019-03-15T05:37:50.439Z,15.82
2019-03-15T05:40:18.701Z,16.37
2019-03-15T05:42:47.141Z,15.65
2019-03-15T05:45:15.528Z,15.88
2019-03-15T05:47:43.811Z,16.43
2019-03-15T05:50:12.937Z,16.30
2019-03-15T05:52:41.220Z,15.53
2019-03-15T05:55:11.828Z,15.73
2019-03-15T05:57:40.088Z,17.00
2019-03-15T06:00:13.675Z,15.51
2019-03-15T06:02:41.944Z,15.93
2019-03-15T06:05:10.498Z,15.95
2019-03-15T06:07:38.785Z,15.76
2019-03-15T06:10:09.979Z,16.08
2019-03-15T06:12:38.223Z,15.69
2019-03-15T06:15:09.397Z,15.98
2019-03-15T06:17:37.673Z,16.02
2019-03-15T06:20:08.639Z,15.93
2019-03-15T06:22:36.896Z,18.41
2019-03-15T06:25:06.912Z,17.68
2019-03-15T06:27:35.181Z,17.14
2019-03-15T06:30:05.098Z,16.16
2019-03-15T06:32:33.353Z,16.12
2019-03-15T06:35:01.630Z,16.35
2019-03-15T06:37:29.926Z,15.74
2019-03-15T06:40:07.215Z,15.38
2019-03-15T06:42:58.894Z,14.84
2019-03-15T06:45:27.314Z,15.74
2019-03-15T06:47:55.584Z,15.81
2019-03-15T06:50:23.847Z,16.50
2019-03-15T06:52:52.495Z,17.76
2019-03-15T06:55:20.772Z,17.09
2019-03-15T06:57:56.698Z,16.92
2019-03-15T07:00:28.055Z,15.99
2019-03-15T07:02:56.393Z,16.07
2019-03-15T07:05:24.677Z,16.75
2019-03-15T07:07:52.981Z,16.68
2019-03-15T07:10:21.271Z,17.72
2019-03-15T07:12:49.725Z,17.51
2019-03-15T07:15:18.007Z,16.06
2019-03-15T07:17:46.257Z,16.54
2019-03-15T07:20:15.994Z,16.65
2019-03-15T07:22:44.241Z,16.09
2019-03-15T07:25:12.591Z,16.85
2019-03-15T07:27:42.686Z,16.47
2019-03-15T07:30:15.004Z,17.12
2019-03-15T07:32:43.303Z,15.43
2019-03-15T07:35:11.588Z,16.06
2019-03-15T07:37:39.860Z,16.68
2019-03-15T07:40:10.075Z,17.93
2019-03-15T07:42:38.334Z,16.22
2019-03-15T07:45:11.246Z,18.25
2019-03-15T07:47:39.530Z,17.70
2019-03-15T07:50:13.747Z,18.08
2019-03-15T07:52:40.453Z,17.50
2019-03-15T07:55:09.262Z,18.04
2019-03-15T07:57:37.534Z,16.77
2019-03-15T08:00:14.018Z,17.41
2019-03-15T08:02:42.364Z,17.25
2019-03-15T08:05:10.694Z,17.34
2019-03-15T08:07:44.862Z,17.38
2019-03-15T08:10:10.821Z,17.27
2019-03-15T08:12:39.182Z,17.92
2019-03-15T08:15:09.967Z,17.38
2019-03-15T08:17:38.235Z,17.83
2019-03-15T08:20:09.430Z,17.72
2019-03-15T08:22:37.699Z,17.27
2019-03-15T08:25:07.790Z,17.14
2019-03-15T08:27:36.053Z,15.78
2019-03-15T08:30:07.468Z,17.35
2019-03-15T08:32:35.724Z,18.89
2019-03-15T08:35:05.434Z,20.98
2019-03-15T08:37:33.707Z,18.90
2019-03-15T08:40:01.975Z,19.57
2019-03-15T08:42:34.531Z,19.41
2019-03-15T08:45:01.860Z,17.89
2019-03-15T08:47:32.557Z,17.34
2019-03-15T08:50:00.823Z,17.17
2019-03-15T08:52:29.101Z,19.60
2019-03-15T08:55:05.181Z,17.13
2019-03-15T08:57:27.583Z,17.94
2019-03-15T08:59:57.770Z,19.63
2019-03-15T09:02:25.902Z,17.78
2019-03-15T09:04:55.816Z,17.03
2019-03-15T09:07:24.102Z,17.49
2019-03-15T09:09:52.435Z,18.50
2019-03-15T09:12:20.690Z,17.25
2019-03-15T09:14:48.991Z,18.54
2019-03-15T09:17:19.920Z,18.12
2019-03-15T09:19:47.266Z,17.63
2019-03-15T09:22:15.549Z,17.73
2019-03-15T09:24:43.831Z,18.22
2019-03-15T09:27:12.111Z,17.71
2019-03-15T09:29:42.020Z,17.72
2019-03-15T09:32:10.304Z,19.71
2019-03-15T09:34:38.577Z,18.67
2019-03-15T09:37:06.863Z,19.51
2019-03-15T09:39:35.173Z,18.18
2019-03-15T09:42:03.450Z,18.36
2019-03-15T09:44:31.735Z,17.50
2019-03-15T09:47:02.543Z,18.09
2019-03-15T09:49:30.042Z,18.73
2019-03-15T09:51:58.294Z,19.84
2019-03-15T09:54:26.557Z,18.08
2019-03-15T09:56:54.850Z,18.53
2019-03-15T09:59:23.212Z,18.28
2019-03-15T10:01:51.472Z,18.69
2019-03-15T10:04:19.746Z,18.53
2019-03-15T10:06:48.075Z,17.74
2019-03-15T10:09:16.388Z,17.80
2019-03-15T10:11:44.686Z,17.86
2019-03-15T10:14:12.947Z,17.68
2019-03-15T10:16:41.245Z,17.64
2019-03-15T10:19:09.518Z,18.23
2019-03-15T10:21:37.812Z,18.60
2019-03-15T10:24:06.201Z,18.14
2019-03-15T10:26:34.424Z,19.43
2019-03-15T10:29:14.750Z,17.79
2019-03-15T10:31:32.729Z,19.21
2019-03-15T10:34:01.589Z,19.68
2019-03-15T10:36:29.841Z,17.90
2019-03-15T10:38:58.208Z,17.95
2019-03-15T10:41:26.491Z,19.09
2019-03-15T10:43:54.839Z,19.01
2019-03-15T10:46:23.108Z,18.33
2019-03-15T10:48:51.366Z,19.82
2019-03-15T10:51:19.622Z,20.21
2019-03-15T10:53:47.887Z,18.67
2019-03-15T10:56:16.166Z,18.72
2019-03-15T10:58:44.419Z,18.97
2019-03-15T11:01:12.679Z,18.30
2019-03-15T11:03:40.948Z,18.73
2019-03-15T11:06:09.249Z,18.37
2019-03-15T11:08:37.525Z,19.69
2019-03-15T11:11:05.860Z,19.09
2019-03-15T11:13:34.117Z,18.68
2019-03-15T11:16:02.379Z,19.37
2019-03-15T11:18:30.661Z,19.66
2019-03-15T11:20:58.933Z,18.48
2019-03-15T11:23:27.195Z,19.28
2019-03-15T11:25:55.482Z,19.27
2019-03-15T11:28:23.727Z,19.67
2019-03-15T11:30:51.973Z,18.55
2019-03-15T11:33:20.268Z,19.31
2019-03-15T11:35:48.524Z,18.64
2019-03-15T11:38:16.824Z,19.12
2019-03-15T11:40:45.105Z,19.11
2019-03-15T11:43:13.398Z,20.00
2019-03-15T11:45:41.662Z,19.33
2019-03-15T11:48:09.926Z,19.68
2019-03-15T11:50:38.226Z,19.63
2019-03-15T11:53:06.452Z,19.49
2019-03-15T11:55:34.698Z,19.52
2019-03-15T11:58:02.957Z,19.80
2019-03-15T12:00:31.239Z,20.09
2019-03-15T12:02:59.693Z,21.03
2019-03-15T12:05:27.974Z,21.23
2019-03-15T12:07:56.277Z,20.62
2019-03-15T12:10:24.544Z,19.78
2019-03-15T12:12:52.803Z,21.21
2019-03-15T12:15:21.088Z,19.83
2019-03-15T12:17:52.334Z,21.32
2019-03-15T12:20:20.648Z,22.21
2019-03-15T12:22:48.989Z,21.34
2019-03-15T12:25:17.240Z,20.84
2019-03-15T12:27:45.534Z,21.29
2019-03-15T12:30:16.099Z,20.75
2019-03-15T12:32:44.430Z,22.15
2019-03-15T12:35:14.780Z,20.40
2019-03-15T12:37:43.068Z,21.56
2019-03-15T12:40:15.818Z,21.87
2019-03-15T12:42:44.091Z,22.32
2019-03-15T12:45:14.302Z,20.70
2019-03-15T12:47:42.553Z,22.01
2019-03-15T12:50:14.298Z,21.19
2019-03-15T12:52:47.671Z,21.71
2019-03-15T12:55:13.671Z,21.69
2019-03-15T12:57:42.025Z,21.56
2019-03-15T13:00:15.109Z,21.25
2019-03-15T13:02:43.368Z,21.20
2019-03-15T13:05:11.663Z,22.49
2019-03-15T13:07:39.919Z,21.88
2019-03-15T13:10:13.428Z,22.45
2019-03-15T13:12:41.671Z,22.41
2019-03-15T13:15:12.685Z,22.65
2019-03-15T13:17:41.078Z,21.68
2019-03-15T13:20:16.840Z,21.82
2019-03-15T13:22:45.118Z,21.86
2019-03-15T13:25:13.627Z,21.56
2019-03-15T13:27:42.709Z,22.22
2019-03-15T13:30:22.090Z,22.80
2019-03-15T13:32:51.398Z,22.11
2019-03-15T13:35:19.771Z,22.30
2019-03-15T13:37:48.057Z,21.70
2019-03-15T13:40:20.212Z,22.34
2019-03-15T13:42:48.547Z,21.55
2019-03-15T13:45:17.387Z,21.02
2019-03-15T13:47:45.703Z,22.67
2019-03-15T13:50:15.131Z,21.18
2019-03-15T13:52:43.416Z,21.58
2019-03-15T13:55:11.746Z,21.89
2019-03-15T13:57:40.024Z,21.19
2019-03-15T14:00:17.048Z,21.41
2019-03-15T14:02:45.562Z,20.94
2019-03-15T14:05:13.919Z,21.34
2019-03-15T14:07:44.777Z,21.75
2019-03-15T14:10:17.699Z,21.51
2019-03-15T14:12:46.174Z,21.19
2019-03-15T14:15:20.847Z,21.47
2019-03-15T14:17:49.103Z,21.94
2019-03-15T14:20:17.382Z,21.95
2019-03-15T14:22:45.653Z,21.84
2019-03-15T14:25:19.479Z,21.87
2019-03-15T14:27:47.799Z,21.86
2019-03-15T14:30:16.072Z,21.86
2019-03-15T14:32:44.362Z,22.63
2019-03-15T14:35:12.713Z,23.91
2019-03-15T14:37:41.071Z,22.13
2019-03-15T14:40:10.777Z,21.74
2019-03-15T14:42:39.386Z,22.27
2019-03-15T14:45:15.845Z,22.72
2019-03-15T14:47:44.308Z,22.20
2019-03-15T14:50:14.017Z,22.49
2019-03-15T14:52:42.306Z,22.88
2019-03-15T14:55:11.519Z,21.85
2019-03-15T14:57:50.966Z,22.93
2019-03-15T15:00:13.110Z,22.15
2019-03-15T15:02:41.370Z,22.00
2019-03-15T15:05:14.814Z,21.80
2019-03-15T15:07:43.124Z,21.95
2019-03-15T15:10:16.080Z,22.57
2019-03-15T15:12:44.385Z,22.12
2019-03-15T15:15:14.104Z,21.51
2019-03-15T15:17:42.386Z,22.44
2019-03-15T15:20:11.691Z,21.18
2019-03-15T15:22:41.841Z,22.24
2019-03-15T15:25:15.372Z,21.36
2019-03-15T15:27:43.652Z,22.11
2019-03-15T15:30:14.039Z,22.29
2019-03-15T15:32:42.295Z,21.74
2019-03-15T15:35:11.693Z,22.46
2019-03-15T15:37:39.983Z,21.95
2019-03-15T15:40:10.864Z,22.07
2019-03-15T15:42:39.191Z,22.08
2019-03-15T15:45:09.429Z,22.27
2019-03-15T15:47:37.949Z,22.75
2019-03-15T15:50:11.049Z,23.06
2019-03-15T15:52:39.292Z,22.78
2019-03-15T15:55:09.689Z,22.00
2019-03-15T15:57:37.972Z,22.44
2019-03-15T16:00:09.515Z,22.46
2019-03-15T16:02:37.795Z,21.70
2019-03-15T16:05:08.635Z,21.72
2019-03-15T16:07:36.866Z,22.77
2019-03-15T16:10:08.638Z,23.09
2019-03-15T16:12:36.894Z,23.08
2019-03-15T16:15:13.741Z,23.53
2019-03-15T16:17:45.206Z,21.36
2019-03-15T16:20:12.321Z,21.71
2019-03-15T16:22:40.614Z,22.44
2019-03-15T16:25:10.006Z,21.75
2019-03-15T16:27:38.361Z,21.30
2019-03-15T16:30:22.282Z,22.13
2019-03-15T16:32:55.520Z,22.07
2019-03-15T16:35:28.228Z,21.64
2019-03-15T16:37:56.550Z,21.67
2019-03-15T16:40:24.821Z,21.89
2019-03-15T16:42:53.165Z,22.03
2019-03-15T16:45:26.563Z,22.10
2019-03-15T16:47:54.939Z,22.16
2019-03-15T16:50:23.168Z,22.17
2019-03-15T16:52:51.447Z,22.32
2019-03-15T16:55:19.727Z,22.27
2019-03-15T16:57:48.012Z,22.31
2019-03-15T17:00:16.871Z,22.28
2019-03-15T17:02:45.138Z,21.79
2019-03-15T17:05:13.842Z,22.30
2019-03-15T17:07:42.550Z,21.27
2019-03-15T17:10:18.832Z,22.97
2019-03-15T17:12:47.159Z,21.95
2019-03-15T17:15:18.612Z,22.20
2019-03-15T17:17:47.052Z,23.05
2019-03-15T17:20:16.545Z,21.76
2019-03-15T17:22:51.609Z,22.39
2019-03-15T17:25:19.923Z,22.06
2019-03-15T17:27:48.190Z,21.31
2019-03-15T17:30:17.590Z,20.87
2019-03-15T17:32:45.941Z,21.33
2019-03-15T17:35:15.653Z,21.52
2019-03-15T17:37:43.938Z,22.02
2019-03-15T17:40:17.346Z,21.42
2019-03-15T17:42:45.637Z,21.19
2019-03-15T17:45:14.017Z,21.17
2019-03-15T17:47:42.360Z,22.32
2019-03-15T17:50:18.547Z,21.44
2019-03-15T17:52:50.309Z,21.09
2019-03-15T17:55:19.634Z,21.37
2019-03-15T17:57:47.984Z,22.10
2019-03-15T18:00:25.551Z,20.85
2019-03-15T18:02:55.516Z,21.54
2019-03-15T18:05:23.812Z,21.55
2019-03-15T18:07:53.752Z,20.87
2019-03-15T18:10:22.015Z,21.45
2019-03-15T18:12:50.305Z,21.12
2019-03-15T18:15:18.621Z,20.43
2019-03-15T18:17:46.895Z,20.65
2019-03-15T18:20:15.242Z,21.17
2019-03-15T18:22:43.485Z,20.46
2019-03-15T18:25:11.878Z,20.98
2019-03-15T18:27:40.181Z,21.02
2019-03-15T18:30:16.748Z,20.61
2019-03-15T18:32:45.238Z,20.34
2019-03-15T18:35:13.982Z,20.82
2019-03-15T18:37:42.311Z,20.57
2019-03-15T18:40:13.630Z,21.53
2019-03-15T18:42:42.154Z,21.85
2019-03-15T18:45:14.594Z,21.22
2019-03-15T18:47:42.957Z,20.97
2019-03-15T18:50:23.332Z,21.30
2019-03-15T18:52:51.639Z,20.41
2019-03-15T18:55:19.957Z,21.42
2019-03-15T18:57:48.278Z,20.45
2019-03-15T19:00:19.246Z,21.44
2019-03-15T19:02:47.593Z,21.14
2019-03-15T19:05:16.427Z,21.72
2019-03-15T19:07:44.714Z,21.08
2019-03-15T19:10:14.515Z,21.98
2019-03-15T19:12:42.814Z,20.84
2019-03-15T19:15:16.013Z,20.58
2019-03-15T19:17:44.362Z,21.88
2019-03-15T19:20:16.298Z,21.34
2019-03-15T19:22:44.634Z,21.38
2019-03-15T19:25:14.149Z,20.19
2019-03-15T19:27:42.432Z,21.75
2019-03-15T19:30:18.173Z,20.90
2019-03-15T19:32:46.578Z,21.19
2019-03-15T19:35:14.841Z,22.12
2019-03-15T19:37:43.127Z,21.54
2019-03-15T19:40:13.979Z,21.85
2019-03-15T19:42:45.070Z,21.63
2019-03-15T19:45:14.826Z,21.61
2019-03-15T19:47:43.156Z,20.38
2019-03-15T19:50:13.628Z,21.01
2019-03-15T19:52:42.001Z,21.80
2019-03-15T19:55:14.205Z,21.96
2019-03-15T19:57:42.566Z,21.42
2019-03-15T20:00:19.056Z,21.42
2019-03-15T20:02:47.367Z,21.88
2019-03-15T20:05:15.628Z,22.29
2019-03-15T20:07:47.216Z,21.00
2019-03-15T20:10:17.223Z,21.48
2019-03-15T20:12:45.846Z,22.03
2019-03-15T20:15:15.485Z,21.60
2019-03-15T20:17:43.750Z,20.37
2019-03-15T20:20:20.034Z,20.42
2019-03-15T20:22:48.309Z,20.24
2019-03-15T20:25:17.314Z,21.52
2019-03-15T20:27:45.611Z,21.56
2019-03-15T20:30:21.938Z,20.97
2019-03-15T20:32:45.903Z,20.79
2019-03-15T20:35:14.180Z,20.88
2019-03-15T20:37:42.468Z,21.26
2019-03-15T20:40:12.336Z,21.27
2019-03-15T20:42:40.580Z,20.69
2019-03-15T20:45:16.387Z,21.97
2019-03-15T20:47:44.656Z,21.35
2019-03-15T20:50:13.767Z,20.62
2019-03-15T20:52:42.065Z,21.37
2019-03-15T20:55:10.561Z,21.68
2019-03-15T20:57:38.841Z,21.60
2019-03-15T21:00:15.357Z,21.34
2019-03-15T21:02:43.638Z,21.73
2019-03-15T21:05:11.975Z,20.15
2019-03-15T21:07:43.332Z,20.56
2019-03-15T21:10:12.370Z,21.56
2019-03-15T21:12:40.650Z,20.36
2019-03-15T21:15:14.051Z,21.28
2019-03-15T21:17:42.443Z,21.30
2019-03-15T21:20:18.689Z,21.42
2019-03-15T21:22:46.978Z,20.86
2019-03-15T21:25:15.256Z,20.84
2019-03-15T21:27:53.678Z,22.46
2019-03-15T21:30:16.634Z,20.71
2019-03-15T21:32:44.937Z,21.52
2019-03-15T21:35:13.300Z,20.24
2019-03-15T21:37:41.577Z,21.38
2019-03-15T21:40:11.608Z,22.06
2019-03-15T21:42:39.868Z,21.06
2019-03-15T21:45:10.099Z,21.07
2019-03-15T21:47:38.347Z,21.73
2019-03-15T21:50:17.658Z,21.00
2019-03-15T21:52:45.998Z,21.17
2019-03-15T21:55:14.258Z,21.07
2019-03-15T21:57:42.558Z,21.37
2019-03-15T22:00:15.387Z,21.59
2019-03-15T22:02:43.654Z,20.20
2019-03-15T22:05:11.942Z,21.55
2019-03-15T22:07:40.238Z,20.73
2019-03-15T22:10:11.686Z,20.59
2019-03-15T22:12:41.386Z,21.17
2019-03-15T22:15:13.366Z,21.79
2019-03-15T22:17:41.843Z,20.91
2019-03-15T22:20:17.352Z,20.61
2019-03-15T22:22:45.609Z,21.11
2019-03-15T22:25:13.876Z,21.37
2019-03-15T22:27:42.204Z,21.00
2019-03-15T22:30:14.524Z,21.42
2019-03-15T22:32:42.788Z,21.06
2019-03-15T22:35:11.121Z,20.68
2019-03-15T22:37:39.456Z,21.16
2019-03-15T22:40:11.946Z,21.31
2019-03-15T22:42:41.305Z,21.35
2019-03-15T22:45:16.932Z,21.53
2019-03-15T22:47:51.375Z,21.18
2019-03-15T22:50:18.855Z,22.20
2019-03-15T22:52:47.138Z,20.75
2019-03-15T22:55:15.422Z,20.78
2019-03-15T22:57:43.694Z,21.18
2019-03-15T23:00:16.440Z,21.79
2019-03-15T23:02:44.893Z,21.68
2019-03-15T23:05:13.513Z,21.72
2019-03-15T23:07:41.795Z,20.79
2019-03-15T23:10:10.786Z,21.72
2019-03-15T23:12:39.168Z,20.85
2019-03-15T23:15:09.758Z,21.59
2019-03-15T23:17:38.089Z,22.40
2019-03-15T23:20:08.014Z,21.03
2019-03-15T23:22:36.321Z,20.63
2019-03-15T23:25:05.920Z,21.36
2019-03-15T23:27:34.192Z,21.07
2019-03-15T23:30:02.540Z,20.81
2019-03-15T23:32:30.828Z,20.31
2019-03-15T23:34:59.125Z,21.60
2019-03-15T23:37:27.377Z,21.29
2019-03-15T23:39:55.648Z,21.56
2019-03-15T23:42:23.915Z,21.20
2019-03-15T23:44:52.198Z,21.56
2019-03-15T23:47:20.461Z,21.14
2019-03-15T23:49:48.722Z,21.23
2019-03-15T23:52:17.016Z,19.98
2019-03-15T23:54:45.338Z,20.72
2019-03-15T23:57:13.588Z,20.78
2019-03-15T23:59:44.685Z,21.03
